Time;durP1;ratioP1;P1;durP2;ratioP2;P2;SDS_P1;SDS_P2;PMS_P1;PMS_P2;Temp;Humidity;BMP_temperature;BMP_pressure;BME280_temperature;BME280_humidity;BME280_pressure;Samples;Min_cycle;Max_cycle;Signal;HPM_P1;HPM_P2
2022/07/02 00:01:43;;;;;;;0.97;0.47;;;;;;;16.13;100.00;99972.00;5044403;28;20259;-75
2022/07/02 00:04:12;;;;;;;0.33;0.30;;;;;;;16.19;100.00;99975.59;5049062;28;20663;-74
2022/07/02 00:06:40;;;;;;;0.40;0.40;;;;;;;16.09;100.00;99970.84;5046246;28;20217;-74
2022/07/02 00:09:07;;;;;;;0.30;0.30;;;;;;;16.06;100.00;99982.13;5027932;28;20237;-74
2022/07/02 00:11:34;;;;;;;0.50;0.40;;;;;;;16.26;100.00;99979.75;5045421;28;20226;-73
2022/07/02 00:14:00;;;;;;;0.40;0.40;;;;;;;16.02;100.00;99982.88;5041212;28;20226;-75
2022/07/02 00:16:27;;;;;;;0.30;0.30;;;;;;;15.88;100.00;99976.97;5047756;28;20233;-74
2022/07/02 00:18:54;;;;;;;1.03;0.37;;;;;;;15.92;100.00;99977.31;5046350;28;20334;-75
2022/07/02 00:21:21;;;;;;;0.30;0.30;;;;;;;16.16;100.00;99963.38;5050430;28;20233;-74
2022/07/02 00:23:48;;;;;;;0.40;0.40;;;;;;;16.24;100.00;99965.66;5047799;28;20234;-75
2022/07/02 00:26:18;;;;;;;0.33;0.33;;;;;;;16.24;100.00;99965.66;5050621;28;20317;-75
2022/07/02 00:28:46;;;;;;;0.40;0.40;;;;;;;16.15;100.00;99969.84;5050108;28;20698;-75
2022/07/02 00:31:13;;;;;;;0.40;0.40;;;;;;;16.10;100.00;99972.47;5029377;28;20234;-74
2022/07/02 00:33:40;;;;;;;0.57;0.40;;;;;;;16.00;100.00;99977.75;5051467;28;20731;-74
2022/07/02 00:36:07;;;;;;;0.60;0.43;;;;;;;16.15;100.00;99969.00;5046504;28;20236;-75
2022/07/02 00:38:34;;;;;;;0.30;0.30;;;;;;;16.05;100.00;99982.41;5041853;28;20259;-75
2022/07/02 00:41:02;;;;;;;0.37;0.33;;;;;;;15.88;100.00;99974.28;5048862;28;20592;-74
2022/07/02 00:43:29;;;;;;;0.40;0.40;;;;;;;16.05;100.00;99971.59;5046838;28;20702;-74
2022/07/02 00:45:56;;;;;;;0.30;0.30;;;;;;;16.02;100.00;99967.47;5048124;28;20239;-75
2022/07/02 00:48:23;;;;;;;0.70;0.40;;;;;;;16.16;100.00;99960.66;5056077;28;20237;-74
2022/07/02 00:50:50;;;;;;;0.40;0.30;;;;;;;16.04;100.00;99956.44;5061327;28;20267;-74
2022/07/02 00:53:16;;;;;;;0.40;0.40;;;;;;;15.95;100.00;99963.31;5041462;28;20617;-74
2022/07/02 00:55:43;;;;;;;0.63;0.30;;;;;;;15.79;100.00;99949.56;5052476;28;20312;-74
2022/07/02 00:58:10;;;;;;;0.40;0.40;;;;;;;15.90;100.00;99961.34;5037958;28;20317;-75
2022/07/02 01:00:36;;;;;;;1.57;0.40;;;;;;;15.89;100.00;99967.81;5043579;28;20582;-75
2022/07/02 01:03:04;;;;;;;0.43;0.43;;;;;;;15.97;100.00;99961.19;5048557;28;20236;-75
2022/07/02 01:05:30;;;;;;;0.50;0.40;;;;;;;16.04;100.00;99970.78;5049450;28;20237;-75
2022/07/02 01:10:48;;;;;;;0.83;0.40;;;;;;;15.96;100.00;99978.47;5048201;28;20247;-74
2022/07/02 01:13:15;;;;;;;0.43;0.40;;;;;;;15.84;100.00;99981.25;5042472;28;20770;-74
2022/07/02 01:15:41;;;;;;;0.40;0.40;;;;;;;16.00;100.00;99988.56;5045842;28;20304;-75
2022/07/02 01:18:10;;;;;;;0.43;0.43;;;;;;;15.80;100.00;99980.09;5043238;28;20234;-75
2022/07/02 01:20:37;;;;;;;0.40;0.40;;;;;;;15.70;100.00;99983.44;5046603;28;20234;-74
2022/07/02 01:23:03;;;;;;;1.23;0.40;;;;;;;15.59;100.00;99988.91;5049974;28;20249;-75
2022/07/02 01:25:30;;;;;;;0.53;0.53;;;;;;;15.54;100.00;99989.63;5042641;28;20236;-74
2022/07/02 01:27:57;;;;;;;0.30;0.30;;;;;;;15.53;100.00;99987.19;5046319;28;20324;-74
2022/07/02 01:30:23;;;;;;;0.50;0.50;;;;;;;15.41;100.00;99984.50;5046341;28;20324;-75
2022/07/02 01:32:50;;;;;;;0.83;0.50;;;;;;;15.45;100.00;99982.97;5045024;28;20324;-75
2022/07/02 01:35:17;;;;;;;0.50;0.50;;;;;;;15.46;100.00;99983.78;5041059;28;20855;-74
2022/07/02 01:37:43;;;;;;;0.50;0.50;;;;;;;15.42;100.00;99983.47;5045760;28;20226;-75
2022/07/02 01:40:10;;;;;;;0.67;0.60;;;;;;;15.39;100.00;99986.66;5047377;28;20605;-75
2022/07/02 01:42:37;;;;;;;0.30;0.30;;;;;;;15.32;100.00;99973.28;5047776;28;20299;-74
2022/07/02 01:45:04;;;;;;;0.50;0.50;;;;;;;15.34;100.00;99983.84;5043055;28;20260;-75
2022/07/02 01:47:31;;;;;;;0.50;0.50;;;;;;;15.25;100.00;99983.44;5042950;28;20234;-75
2022/07/02 01:49:58;;;;;;;1.67;0.50;;;;;;;15.25;100.00;99980.72;5067224;28;20723;-74
2022/07/02 01:52:26;;;;;;;0.60;0.60;;;;;;;15.29;100.00;99983.75;5064983;28;20229;-75
2022/07/02 01:54:53;;;;;;;0.70;0.60;;;;;;;15.23;100.00;99982.00;5066968;28;20718;-75
2022/07/02 01:57:20;;;;;;;1.17;0.60;;;;;;;15.25;100.00;99988.00;5065482;28;20239;-74
2022/07/02 01:59:47;;;;;;;0.60;0.60;;;;;;;15.33;100.00;100001.09;5064830;28;20316;-74
2022/07/02 02:02:13;;;;;;;1.70;0.50;;;;;;;15.31;100.00;99987.03;5068932;28;20231;-75
2022/07/02 02:04:40;;;;;;;0.50;0.50;;;;;;;15.29;100.00;99989.97;5069537;28;20219;-75
2022/07/02 02:07:08;;;;;;;1.20;0.67;;;;;;;15.25;100.00;99990.72;5062498;28;20322;-74
2022/07/02 02:09:35;;;;;;;0.80;0.60;;;;;;;15.39;100.00;100000.97;5071142;28;20239;-75
2022/07/02 02:12:02;;;;;;;0.60;0.60;;;;;;;15.46;100.00;99997.28;5063305;28;20231;-75
2022/07/02 02:14:28;;;;;;;1.00;0.67;;;;;;;15.43;100.00;100001.31;5057848;28;20322;-77
2022/07/02 02:16:55;;;;;;;0.60;0.60;;;;;;;15.37;100.00;99989.59;5060413;28;20327;-74
2022/07/02 02:19:22;;;;;;;0.80;0.80;;;;;;;15.36;100.00;99995.22;5067413;28;20714;-75
2022/07/02 02:21:48;;;;;;;0.77;0.77;;;;;;;15.34;100.00;99997.34;5068036;28;20231;-74
2022/07/02 02:24:15;;;;;;;0.90;0.70;;;;;;;15.44;100.00;100002.94;5061868;28;20236;-74
2022/07/02 02:26:42;;;;;;;0.80;0.70;;;;;;;15.55;100.00;100014.75;5063046;28;20263;-75
2022/07/02 02:29:09;;;;;;;1.07;0.80;;;;;;;15.44;100.00;100008.34;5068317;28;20318;-74
2022/07/02 02:31:35;;;;;;;0.80;0.80;;;;;;;15.48;100.00;100012.19;5063679;28;20259;-75
2022/07/02 02:34:02;;;;;;;0.77;0.77;;;;;;;15.62;100.00;100004.66;5064745;28;20247;-74
2022/07/02 02:36:29;;;;;;;0.70;0.70;;;;;;;15.60;100.00;100007.56;5058327;28;20232;-75
2022/07/02 02:38:55;;;;;;;0.67;0.67;;;;;;;15.50;100.00;100012.75;5060302;28;20240;-75
2022/07/02 02:41:22;;;;;;;1.70;0.60;;;;;;;15.48;100.00;100011.38;5057250;28;20227;-74
2022/07/02 02:43:49;;;;;;;1.93;0.80;;;;;;;15.58;100.00;100017.00;5064413;28;20228;-74
2022/07/02 02:46:16;;;;;;;2.87;0.80;;;;;;;15.53;100.00;100001.53;5068122;28;20246;-74
2022/07/02 02:48:42;;;;;;;1.43;0.73;;;;;;;15.48;100.00;100003.28;5066145;28;20239;-74
2022/07/02 02:51:13;;;;;;;1.23;0.60;;;;;;;15.34;100.00;100003.56;5066847;28;20236;-74
2022/07/02 02:53:43;;;;;;;1.37;0.90;;;;;;;15.30;100.00;100007.00;5061026;28;20728;-74
2022/07/02 02:56:11;;;;;;;1.23;0.60;;;;;;;15.33;100.00;100003.81;5063294;28;20237;-75
2022/07/02 02:58:38;;;;;;;1.23;0.70;;;;;;;15.39;100.00;100006.38;5063862;28;20238;-74
2022/07/02 03:01:04;;;;;;;0.70;0.70;;;;;;;15.36;100.00;100012.22;5056634;28;20242;-74
2022/07/02 03:03:31;;;;;;;0.80;0.80;;;;;;;15.37;100.00;100007.66;5059956;28;20227;-75
2022/07/02 03:05:59;;;;;;;0.80;0.80;;;;;;;15.36;100.00;100000.63;5064925;28;20228;-74
2022/07/02 03:08:25;;;;;;;1.47;0.70;;;;;;;15.27;100.00;100018.25;5059308;28;20232;-73
2022/07/02 03:10:52;;;;;;;0.80;0.80;;;;;;;15.15;100.00;100015.63;5060604;28;20232;-74
2022/07/02 03:13:18;;;;;;;0.90;0.80;;;;;;;15.22;100.00;100029.78;5059887;28;20322;-74
2022/07/02 03:15:45;;;;;;;0.93;0.70;;;;;;;15.24;100.00;100024.97;5063633;28;20236;-75
2022/07/02 03:18:12;;;;;;;0.70;0.70;;;;;;;15.21;100.00;100027.34;5070527;28;20324;-74
2022/07/02 03:20:38;;;;;;;0.80;0.80;;;;;;;15.24;100.00;100024.97;5060485;28;20343;-74
2022/07/02 03:23:05;;;;;;;0.70;0.70;;;;;;;15.22;100.00;100023.56;5057700;28;20228;-74
2022/07/02 03:25:31;;;;;;;2.87;1.00;;;;;;;15.35;100.00;100026.00;5055742;28;20353;-74
2022/07/02 03:27:58;;;;;;;0.87;0.70;;;;;;;15.38;100.00;100031.72;5070578;28;20656;-74
2022/07/02 03:30:25;;;;;;;1.77;0.87;;;;;;;15.34;100.00;100029.75;5063090;28;20567;-74
2022/07/02 03:32:51;;;;;;;0.80;0.80;;;;;;;15.39;100.00;100044.16;5066558;28;20231;-74
2022/07/02 03:35:18;;;;;;;1.50;0.90;;;;;;;15.42;100.00;100032.88;5070433;28;20758;-75
2022/07/02 03:37:45;;;;;;;0.80;0.80;;;;;;;15.52;100.00;100034.97;5054280;28;20771;-76
2022/07/02 03:40:11;;;;;;;0.97;0.80;;;;;;;15.41;100.00;100023.13;5070043;28;20323;-75
2022/07/02 03:42:38;;;;;;;0.80;0.80;;;;;;;15.42;100.00;100032.06;5065234;28;20665;-75
2022/07/02 03:45:05;;;;;;;0.80;0.80;;;;;;;15.38;100.00;100039.00;5067920;28;20719;-75
2022/07/02 03:47:32;;;;;;;0.90;0.90;;;;;;;15.51;100.00;100044.13;5065862;28;20252;-75
2022/07/02 03:49:58;;;;;;;1.67;0.80;;;;;;;15.49;100.00;100051.63;5070671;28;20647;-75
2022/07/02 03:52:25;;;;;;;0.80;0.70;;;;;;;15.65;100.00;100052.75;5064540;28;20231;-74
2022/07/02 03:54:52;;;;;;;0.90;0.90;;;;;;;15.71;100.00;100043.69;5071228;28;20239;-75
2022/07/02 03:57:18;;;;;;;0.80;0.80;;;;;;;15.73;100.00;100049.66;5054821;28;20241;-75
2022/07/02 03:59:45;;;;;;;0.90;0.90;;;;;;;15.77;100.00;100057.03;5061023;28;20330;-75
2022/07/02 04:02:11;;;;;;;0.90;0.90;;;;;;;15.73;100.00;100053.19;5062289;28;20318;-76
2022/07/02 04:04:38;;;;;;;0.97;0.93;;;;;;;15.72;100.00;100062.34;5062001;28;20232;-76
2022/07/02 04:07:05;;;;;;;1.47;0.90;;;;;;;16.60;100.00;100072.50;5070104;28;20235;-75
2022/07/02 04:09:32;;;;;;;2.83;0.97;;;;;;;17.62;100.00;100068.41;5074256;28;20235;-76
2022/07/02 04:11:58;;;;;;;1.00;0.90;;;;;;;18.21;100.00;100070.03;5074127;28;20319;-76
2022/07/02 04:14:25;;;;;;;1.13;1.00;;;;;;;18.52;100.00;100076.53;5073948;28;20319;-76
2022/07/02 04:16:52;;;;;;;1.70;0.80;;;;;;;18.44;100.00;100074.28;5074012;28;20672;-76
2022/07/02 04:19:18;;;;;;;1.27;1.17;;;;;;;18.56;100.00;100082.28;5068390;28;20290;-75
2022/07/02 04:21:45;;;;;;;1.10;1.00;;;;;;;18.60;100.00;100086.94;5073975;28;20225;-76
2022/07/02 04:24:12;;;;;;;0.93;0.90;;;;;;;18.52;100.00;100092.81;5066382;28;20732;-75
2022/07/02 04:26:38;;;;;;;0.97;0.97;;;;;;;18.81;99.17;100099.53;5061380;28;20311;-75
2022/07/02 04:29:05;;;;;;;1.27;1.17;;;;;;;19.21;94.17;100112.53;5072247;28;20793;-76
2022/07/02 04:31:32;;;;;;;1.17;1.10;;;;;;;19.47;89.93;100139.84;5069145;28;20313;-75
2022/07/02 04:33:58;;;;;;;1.13;1.00;;;;;;;20.40;79.41;100214.09;5065108;28;20650;-75
2022/07/02 04:36:25;;;;;;;1.80;1.00;;;;;;;21.10;73.98;100243.25;5065945;28;20239;-75
2022/07/02 04:38:52;;;;;;;1.00;0.90;;;;;;;21.30;71.49;100109.75;5060099;28;20226;-75
2022/07/02 04:41:19;;;;;;;0.77;0.77;;;;;;;20.50;74.81;100108.78;5060738;28;20237;-75
2022/07/02 04:43:45;;;;;;;1.20;1.10;;;;;;;19.58;84.09;100108.91;5056360;28;20233;-76
2022/07/02 04:46:12;;;;;;;1.43;1.00;;;;;;;19.17;90.75;100102.47;5060262;28;20231;-76
2022/07/02 04:48:39;;;;;;;1.90;0.90;;;;;;;18.66;95.29;100115.75;5061737;28;20225;-80
2022/07/02 04:51:05;;;;;;;1.20;1.10;;;;;;;18.28;100.00;100108.63;5068898;28;20720;-75
2022/07/02 04:53:32;;;;;;;1.83;1.20;;;;;;;18.31;100.00;100113.53;5060247;28;20229;-76
2022/07/02 04:55:59;;;;;;;1.10;0.93;;;;;;;18.17;100.00;100112.31;5060254;28;20697;-75
2022/07/02 04:58:25;;;;;;;1.00;0.90;;;;;;;18.01;100.00;100118.66;5057174;28;20233;-75
2022/07/02 05:00:52;;;;;;;0.93;0.80;;;;;;;18.13;100.00;100124.75;5065112;28;20685;-74
2022/07/02 05:03:18;;;;;;;1.27;0.80;;;;;;;18.01;100.00;100129.50;5065924;28;20232;-75
2022/07/02 05:05:46;;;;;;;1.17;1.07;;;;;;;18.14;100.00;100129.13;5066967;28;20254;-75
2022/07/02 05:08:12;;;;;;;1.10;1.10;;;;;;;18.10;100.00;100141.56;5068489;28;20603;-75
2022/07/02 05:10:39;;;;;;;0.97;0.90;;;;;;;18.04;100.00;100139.84;5072622;28;20274;-75
2022/07/02 05:13:05;;;;;;;1.00;1.00;;;;;;;18.09;100.00;100139.91;5071516;28;20235;-75
2022/07/02 05:15:34;;;;;;;1.10;1.00;;;;;;;18.12;100.00;100133.97;5066690;28;20225;-75
2022/07/02 05:18:00;;;;;;;1.57;1.00;;;;;;;18.26;100.00;100137.91;5072545;28;20224;-76
2022/07/02 05:20:28;;;;;;;1.47;0.90;;;;;;;18.40;100.00;100136.38;5069208;28;20251;-75
2022/07/02 05:22:54;;;;;;;1.53;0.77;;;;;;;18.23;100.00;100132.19;5055189;28;20229;-76
2022/07/02 05:25:21;;;;;;;1.20;1.10;;;;;;;18.43;100.00;100137.75;5069917;28;20236;-77
2022/07/02 05:27:48;;;;;;;2.73;1.10;;;;;;;18.43;100.00;100135.88;5065850;28;20642;-76
2022/07/02 05:30:15;;;;;;;0.90;0.90;;;;;;;18.46;100.00;100135.38;5047036;28;20345;-76
2022/07/02 05:32:41;;;;;;;1.30;0.90;;;;;;;18.58;95.30;100140.63;5068985;28;20308;-76
2022/07/02 05:35:08;;;;;;;1.00;1.00;;;;;;;18.72;97.71;100138.28;5071501;28;20708;-78
2022/07/02 05:37:35;;;;;;;0.87;0.87;;;;;;;18.81;95.97;100147.59;5069871;28;20232;-76
2022/07/02 05:40:02;;;;;;;0.87;0.87;;;;;;;18.85;95.05;100140.53;5068883;28;20311;-76
2022/07/02 05:42:29;;;;;;;2.33;0.97;;;;;;;18.71;93.85;100142.91;5069290;28;20640;-76
2022/07/02 05:44:57;;;;;;;1.50;0.87;;;;;;;19.00;90.26;100147.97;5072346;28;20638;-75
2022/07/02 05:47:23;;;;;;;0.90;0.90;;;;;;;18.86;92.67;100145.72;5072911;28;20667;-76
2022/07/02 05:49:50;;;;;;;0.80;0.80;;;;;;;18.86;90.41;100153.06;5073449;28;20232;-76
2022/07/02 05:52:17;;;;;;;0.97;0.80;;;;;;;18.90;91.58;100149.56;5072974;28;20241;-77
2022/07/02 05:54:44;;;;;;;1.37;0.80;;;;;;;19.12;92.54;100176.59;5073335;28;20239;-76
2022/07/02 05:57:11;;;;;;;0.80;0.80;;;;;;;18.94;89.36;100170.78;5073113;28;20237;-76
2022/07/02 05:59:41;;;;;;;1.00;0.90;;;;;;;18.94;91.41;100173.47;5055938;28;20821;-76
2022/07/02 06:02:07;;;;;;;1.40;0.90;;;;;;;19.06;93.27;100169.47;5072845;28;20770;-76
2022/07/02 06:04:34;;;;;;;0.90;0.90;;;;;;;19.25;91.50;100178.84;5073161;28;20256;-76
2022/07/02 06:09:47;;;;;;;0.80;0.80;;;;;;;19.13;87.60;100178.22;5073305;28;20228;-76
2022/07/02 06:12:13;;;;;;;1.73;0.80;;;;;;;19.19;87.08;100187.22;5072481;28;20229;-76
2022/07/02 06:14:40;;;;;;;1.63;0.80;;;;;;;19.31;84.63;100190.56;5073228;28;20231;-77
2022/07/02 06:17:08;;;;;;;1.53;0.80;;;;;;;19.32;83.58;100190.28;5072814;28;20233;-76
2022/07/02 06:19:35;;;;;;;1.67;0.70;;;;;;;19.30;82.16;100187.03;5072054;28;20255;-76
2022/07/02 06:22:01;;;;;;;0.80;0.80;;;;;;;19.41;83.72;100195.22;5072132;28;20232;-76
2022/07/02 06:24:28;;;;;;;0.80;0.80;;;;;;;19.48;80.56;100182.25;5072768;28;20680;-77
2022/07/02 06:26:54;;;;;;;1.87;0.80;;;;;;;19.52;78.12;100188.78;5072583;28;20232;-75
2022/07/02 06:29:21;;;;;;;0.87;0.87;;;;;;;19.58;76.48;100179.56;5072588;28;20229;-76
2022/07/02 06:31:48;;;;;;;0.80;0.73;;;;;;;19.60;78.18;100183.66;5072718;28;20314;-76
2022/07/02 06:34:14;;;;;;;0.60;0.60;;;;;;;19.57;75.33;100183.38;5071951;28;20221;-76
2022/07/02 06:36:41;;;;;;;0.90;0.90;;;;;;;19.69;77.88;100179.34;5072563;28;20235;-75
2022/07/02 06:39:08;;;;;;;1.10;0.97;;;;;;;19.93;77.60;100176.16;5072078;28;20233;-77
2022/07/02 06:44:19;;;;;;;1.00;0.90;;;;;;;19.95;76.59;100180.25;5072152;28;20220;-76
2022/07/02 06:46:46;;;;;;;0.90;0.90;;;;;;;19.94;76.33;100185.94;5070327;28;20658;-76
2022/07/02 06:49:13;;;;;;;0.83;0.83;;;;;;;20.02;74.18;100183.53;5044441;28;20242;-76
2022/07/02 06:51:39;;;;;;;4.87;1.00;;;;;;;20.00;75.62;100191.16;5043137;28;20320;-76
2022/07/02 06:54:06;;;;;;;1.03;1.00;;;;;;;20.10;74.72;100182.19;5043240;28;20218;-75
2022/07/02 06:56:35;;;;;;;0.80;0.80;;;;;;;20.13;74.61;100187.91;5038598;28;20232;-76
2022/07/02 06:59:03;;;;;;;1.20;1.10;;;;;;;20.12;73.87;100180.84;5039737;28;20288;-79
2022/07/02 07:01:30;;;;;;;1.33;1.10;;;;;;;20.23;77.82;100181.69;5037209;28;20868;-76
2022/07/02 07:03:57;;;;;;;0.73;0.73;;;;;;;20.21;75.40;100175.69;5041687;28;20234;-77
2022/07/02 07:06:28;;;;;;;1.63;1.00;;;;;;;20.40;69.44;100173.28;5039450;28;20228;-76
2022/07/02 07:08:55;;;;;;;0.90;0.90;;;;;;;20.30;69.60;100178.69;5038244;28;20262;-75
2022/07/02 07:11:22;;;;;;;0.90;0.90;;;;;;;20.37;69.77;100182.81;5038012;28;20243;-78
2022/07/02 07:13:49;;;;;;;1.20;1.10;;;;;;;20.44;69.54;100190.69;5045920;28;20306;-76
2022/07/02 07:16:16;;;;;;;0.90;0.90;;;;;;;20.61;68.62;100180.38;5048072;28;20249;-77
2022/07/02 07:19:04;;;;;;;1.17;0.90;;;;;;;20.76;67.37;100166.78;5047714;28;20221;-76
2022/07/02 07:21:34;;;;;;;1.00;0.80;;;;;;;20.70;68.23;100180.66;5033952;28;20234;-77
2022/07/02 07:24:01;;;;;;;1.00;0.90;;;;;;;20.66;69.96;100177.66;5043941;28;20230;-77
2022/07/02 07:26:28;;;;;;;1.03;0.90;;;;;;;20.79;67.48;100168.13;5057579;28;20241;-76
2022/07/02 07:28:54;;;;;;;1.20;0.80;;;;;;;20.75;64.21;100169.75;5039427;28;20715;-76
2022/07/02 07:31:21;;;;;;;1.60;1.00;;;;;;;20.59;69.42;100167.03;5041314;28;20227;-76
2022/07/02 07:33:49;;;;;;;1.17;1.07;;;;;;;20.79;69.64;100170.84;5049333;28;20258;-76
2022/07/02 07:36:16;;;;;;;0.60;0.60;;;;;;;20.70;66.15;100172.50;5049252;28;20233;-77
2022/07/02 07:38:44;;;;;;;1.50;1.00;;;;;;;20.79;68.08;100173.56;5042205;28;20250;-76
2022/07/02 07:41:10;;;;;;;1.20;1.10;;;;;;;20.63;69.08;100179.00;5037428;28;20239;-76
2022/07/02 07:43:37;;;;;;;1.10;1.10;;;;;;;20.57;69.96;100174.69;5036081;28;20244;-75
2022/07/02 07:46:04;;;;;;;1.10;1.10;;;;;;;20.29;70.81;100187.94;5048166;28;20223;-77
2022/07/02 07:48:30;;;;;;;2.10;0.93;;;;;;;20.52;69.93;100169.22;5057442;28;21349;-76
2022/07/02 07:50:57;;;;;;;1.20;0.90;;;;;;;20.56;71.34;100174.94;5056443;28;20745;-77
2022/07/02 07:53:24;;;;;;;1.00;1.00;;;;;;;20.66;71.70;100169.50;5066584;28;20236;-76
2022/07/02 07:55:51;;;;;;;1.10;1.00;;;;;;;20.80;70.23;100173.31;5066053;28;20317;-76
2022/07/02 07:58:18;;;;;;;0.90;0.90;;;;;;;20.84;71.63;100173.56;5065520;28;20267;-76
2022/07/02 08:00:46;;;;;;;4.93;1.00;;;;;;;20.96;69.66;100174.91;5066336;28;20799;-76
2022/07/02 08:03:20;;;;;;;1.20;1.10;;;;;;;20.92;71.02;100182.00;5062752;28;20316;-75
2022/07/02 08:05:47;;;;;;;1.00;1.00;;;;;;;20.90;69.74;100170.56;5057892;28;20262;-75
2022/07/02 08:08:14;;;;;;;1.00;1.00;;;;;;;20.79;71.99;100170.84;5057280;28;20322;-76
2022/07/02 08:10:41;;;;;;;2.23;1.20;;;;;;;20.92;71.84;100162.94;5056322;28;20730;-76
2022/07/02 08:13:07;;;;;;;1.10;1.00;;;;;;;21.05;70.59;100177.88;5061025;28;20239;-75
2022/07/02 08:15:34;;;;;;;1.10;1.00;;;;;;;21.05;70.48;100170.53;5062594;28;20710;-75
2022/07/02 08:18:01;;;;;;;1.00;1.00;;;;;;;21.05;68.64;100172.44;5065095;28;20231;-75
2022/07/02 08:20:27;;;;;;;1.00;1.00;;;;;;;21.10;69.28;100166.97;5059136;28;20707;-75
2022/07/02 08:22:54;;;;;;;0.90;0.90;;;;;;;21.15;67.80;100163.47;5062240;28;20236;-77
2022/07/02 08:25:20;;;;;;;1.10;1.00;;;;;;;21.04;70.08;100166.16;5060373;28;20230;-76
2022/07/02 08:27:47;;;;;;;1.43;1.10;;;;;;;21.30;65.46;100166.16;5066294;28;20232;-75
2022/07/02 08:30:14;;;;;;;0.90;0.90;;;;;;;21.21;66.17;100160.47;5033905;28;20647;-76
2022/07/02 08:32:41;;;;;;;0.90;0.90;;;;;;;21.39;64.55;100169.94;5065132;28;20232;-75
2022/07/02 08:35:12;;;;;;;0.93;0.93;;;;;;;21.34;67.13;100165.31;5061374;28;20234;-74
2022/07/02 08:37:39;;;;;;;1.33;0.93;;;;;;;21.42;66.33;100164.75;5063764;28;20233;-79
2022/07/02 08:40:06;;;;;;;1.73;1.00;;;;;;;21.54;65.58;100150.81;5059660;28;20615;-75
2022/07/02 08:42:35;;;;;;;1.23;1.10;;;;;;;21.62;64.30;100141.22;5059754;28;20223;-75
2022/07/02 08:45:03;;;;;;;0.90;0.90;;;;;;;21.74;64.45;100142.53;5060890;28;20235;-75
2022/07/02 08:47:30;;;;;;;2.20;1.20;;;;;;;21.71;65.62;100139.53;5052840;28;20230;-76
2022/07/02 08:49:58;;;;;;;1.00;0.93;;;;;;;21.88;65.66;100148.19;5067911;28;20278;-76
2022/07/02 08:52:27;;;;;;;2.00;1.20;;;;;;;22.02;66.23;100154.69;5060599;28;20610;-76
2022/07/02 08:54:55;;;;;;;1.63;1.30;;;;;;;22.03;64.92;100159.03;5061102;28;20237;-76
2022/07/02 08:57:22;;;;;;;1.20;1.10;;;;;;;21.90;63.89;100159.63;5068574;28;20219;-78
2022/07/02 08:59:49;;;;;;;1.30;1.20;;;;;;;22.10;63.27;100165.00;5063063;28;20247;-75
2022/07/02 09:02:18;;;;;;;1.10;1.10;;;;;;;22.08;65.40;100166.38;5049697;28;20307;-76
2022/07/02 09:04:46;;;;;;;1.20;1.20;;;;;;;22.15;62.93;100170.44;5061648;28;20906;-76
2022/07/02 09:07:14;;;;;;;1.00;1.00;;;;;;;22.55;62.80;100182.97;5063033;28;20767;-75
2022/07/02 09:09:42;;;;;;;2.40;1.07;;;;;;;22.56;62.08;100162.75;5046197;28;20224;-76
2022/07/02 09:12:13;;;;;;;1.00;1.00;;;;;;;22.56;63.57;100160.03;5060420;28;20323;-75
2022/07/02 09:14:42;;;;;;;1.13;1.03;;;;;;;22.61;61.44;100161.91;5055280;28;20282;-76
2022/07/02 09:17:11;;;;;;;1.70;1.17;;;;;;;22.69;59.13;100161.28;5065097;28;20276;-75
2022/07/02 09:19:38;;;;;;;0.90;0.90;;;;;;;22.58;58.44;100167.94;5068697;28;20656;-77
2022/07/02 09:22:06;;;;;;;1.00;1.00;;;;;;;22.32;61.38;100170.03;5064500;28;20241;-77
2022/07/02 09:24:35;;;;;;;1.20;1.10;;;;;;;22.40;60.99;100170.25;5060111;28;20232;-77
2022/07/02 09:27:02;;;;;;;1.00;1.00;;;;;;;22.49;58.75;100162.25;5066528;28;20229;-77
2022/07/02 09:29:46;;;;;;;0.90;0.90;;;;;;;22.35;60.07;100153.91;5039542;28;20691;-77
2022/07/02 09:32:14;;;;;;;1.07;0.97;;;;;;;22.54;64.01;100153.22;5059485;28;20246;-76
2022/07/02 09:34:45;;;;;;;1.87;1.00;;;;;;;22.78;60.93;100160.41;5044377;28;20256;-77
2022/07/02 09:37:17;;;;;;;0.97;0.97;;;;;;;22.89;61.99;100154.84;5053958;28;20216;-77
2022/07/02 09:39:45;;;;;;;1.10;1.10;;;;;;;22.97;57.99;100156.94;5060549;28;20257;-77
2022/07/02 09:42:26;;;;;;;1.30;1.20;;;;;;;23.02;59.37;100157.72;5045231;28;20239;-77
2022/07/02 09:44:53;;;;;;;1.23;1.13;;;;;;;23.24;57.22;100147.09;5062651;28;20296;-78
2022/07/02 09:47:29;;;;;;;0.98;0.98;;;;;;;23.35;57.18;100142.31;5058214;28;20238;-77
2022/07/02 09:49:56;;;;;;;1.90;1.23;;;;;;;23.30;57.06;100141.56;5069014;28;20248;-77
2022/07/02 09:52:23;;;;;;;0.80;0.80;;;;;;;23.27;55.93;100141.06;5067259;28;20246;-77
2022/07/02 09:54:49;;;;;;;1.10;0.98;;;;;;;23.40;59.64;100152.38;5070943;28;20300;-77
2022/07/02 09:57:16;;;;;;;1.77;1.00;;;;;;;23.37;58.15;100145.59;5048698;28;20776;-77
2022/07/02 09:59:43;;;;;;;1.43;0.90;;;;;;;23.47;57.44;100140.00;5058305;28;20243;-77
2022/07/02 10:02:26;;;;;;;1.38;0.90;;;;;;;23.73;55.83;100151.47;5062097;28;20763;-77
2022/07/02 10:04:53;;;;;;;1.60;1.00;;;;;;;23.64;57.37;100143.09;5066593;28;20231;-76
2022/07/02 10:07:21;;;;;;;0.90;0.90;;;;;;;23.55;54.28;100142.13;5054203;28;20247;-77
2022/07/02 10:09:51;;;;;;;1.17;1.08;;;;;;;23.55;55.73;100142.13;5064229;28;20252;-77
2022/07/02 10:12:19;;;;;;;1.08;1.00;;;;;;;23.60;54.55;100133.84;5057341;28;20244;-77
2022/07/02 10:14:46;;;;;;;1.25;1.13;;;;;;;23.54;56.58;100140.50;5032478;28;20233;-77
2022/07/02 10:17:14;;;;;;;0.80;0.80;;;;;;;23.56;55.79;100130.06;5053523;28;20263;-76
2022/07/02 10:19:41;;;;;;;1.90;1.00;;;;;;;23.80;55.28;100126.47;5067654;28;20245;-77
2022/07/02 10:22:08;;;;;;;1.15;1.05;;;;;;;23.69;55.18;100126.63;5047186;28;20920;-77
2022/07/02 10:24:36;;;;;;;1.23;0.80;;;;;;;23.82;55.73;100136.03;5044691;28;20771;-80
2022/07/02 10:27:04;;;;;;;1.17;0.93;;;;;;;23.84;53.87;100127.53;5042964;28;20282;-77
2022/07/02 10:29:31;;;;;;;0.80;0.80;;;;;;;23.64;53.43;100134.06;5044124;28;20689;-78
2022/07/02 10:32:04;;;;;;;0.95;0.88;;;;;;;23.74;53.14;100139.41;5059568;28;20674;-78
2022/07/02 10:35:08;;;;;;;1.13;1.00;;;;;;;23.77;53.16;100121.59;5051357;28;20232;-77
2022/07/02 10:37:41;;;;;;;0.80;0.80;;;;;;;23.76;54.23;100119.94;5045303;28;20256;-77
2022/07/02 10:40:09;;;;;;;1.05;0.95;;;;;;;23.91;54.68;100130.69;5052394;28;20236;-77
2022/07/02 10:42:38;;;;;;;0.82;0.82;;;;;;;24.08;52.17;100125.50;5065681;28;20265;-78
2022/07/02 10:45:11;;;;;;;1.05;0.90;;;;;;;23.96;50.49;100116.94;5048151;28;20320;-78
2022/07/02 10:47:51;;;;;;;0.70;0.70;;;;;;;24.06;51.61;100114.88;5054320;28;20226;-77
2022/07/02 10:50:19;;;;;;;1.50;1.00;;;;;;;24.02;49.97;100113.84;5064530;28;20260;-77
2022/07/02 10:52:51;;;;;;;0.80;0.80;;;;;;;24.01;50.76;100112.22;5062059;28;20708;-76
2022/07/02 10:55:29;;;;;;;1.13;1.00;;;;;;;24.07;50.96;100108.31;5055951;28;20240;-78
2022/07/02 10:58:01;;;;;;;0.90;0.90;;;;;;;24.24;50.38;100112.44;5050160;28;21652;-77
2022/07/02 11:00:36;;;;;;;1.02;0.80;;;;;;;24.41;51.95;100097.09;5064373;28;20283;-77
2022/07/02 11:03:29;;;;;;;1.13;1.08;;;;;;;24.35;49.21;100103.78;5045559;28;20234;-78
2022/07/02 11:06:03;;;;;;;0.90;0.90;;;;;;;24.60;48.09;100090.75;5049411;28;20233;-77
2022/07/02 11:08:46;;;;;;;1.33;0.80;;;;;;;24.53;47.95;100086.47;5057745;28;20233;-78
2022/07/02 11:11:19;;;;;;;0.98;0.90;;;;;;;24.73;48.84;100092.72;5065368;28;20764;-77
2022/07/02 11:13:47;;;;;;;1.27;0.90;;;;;;;24.80;48.11;100093.13;5040924;28;20637;-77
2022/07/02 11:16:21;;;;;;;1.00;0.90;;;;;;;25.02;46.85;100089.72;5064334;28;20678;-77
2022/07/02 11:18:49;;;;;;;1.80;1.00;;;;;;;24.91;47.10;100083.63;5034311;28;20627;-77
2022/07/02 11:21:16;;;;;;;1.92;1.00;;;;;;;24.81;48.60;100076.38;5061297;28;20664;-76
2022/07/02 11:23:43;;;;;;;1.27;0.98;;;;;;;24.90;46.83;100087.50;5035140;28;20256;-77
2022/07/02 11:26:09;;;;;;;0.80;0.80;;;;;;;25.10;46.87;100080.81;5061814;28;20313;-78
2022/07/02 11:28:36;;;;;;;1.48;0.90;;;;;;;25.31;44.52;100080.06;5061061;28;20228;-77
2022/07/02 11:31:04;;;;;;;0.93;0.82;;;;;;;25.31;45.97;100082.81;5058965;28;20233;-77
2022/07/02 11:33:32;;;;;;;0.95;0.85;;;;;;;25.41;44.32;100084.53;5058372;28;20301;-78
2022/07/02 11:35:59;;;;;;;1.67;0.90;;;;;;;25.25;45.05;100080.47;5058158;28;20331;-80